createdAt,value
2022-08-05T00:01:28.427Z,71.00
2022-08-05T00:03:56.984Z,73.44
2022-08-05T00:06:32.205Z,74.25
2022-08-05T00:09:00.730Z,73.04
2022-08-05T00:11:34.798Z,69.68
2022-08-05T00:14:13.085Z,65.91
2022-08-05T00:16:52.077Z,68.01
2022-08-05T00:19:22.592Z,65.69
2022-08-05T00:21:49.979Z,65.38
2022-08-05T00:24:24.133Z,64.61
2022-08-05T00:26:52.940Z,68.43
2022-08-05T00:29:22.425Z,67.96
2022-08-05T00:31:53.300Z,66.56
2022-08-05T00:34:55.794Z,70.09
2022-08-05T00:37:22.529Z,70.03
2022-08-05T00:39:57.939Z,67.66
2022-08-05T00:42:37.032Z,69.43
2022-08-05T00:45:08.658Z,72.85
2022-08-05T00:47:57.104Z,68.52
2022-08-05T00:50:25.264Z,67.48
2022-08-05T00:52:55.082Z,68.31
2022-08-05T00:55:22.276Z,69.12
2022-08-05T00:57:57.992Z,70.81
2022-08-05T01:00:26.285Z,72.54
2022-08-05T01:02:53.060Z,69.10
2022-08-05T01:05:19.829Z,73.25
2022-08-05T01:08:40.187Z,72.96
2022-08-05T01:10:53.996Z,69.16
2022-08-05T01:13:58.356Z,68.02
2022-08-05T01:16:40.185Z,68.70
2022-08-05T01:19:46.331Z,69.12
2022-08-05T01:22:24.267Z,69.60
2022-08-05T01:25:39.945Z,69.88
2022-08-05T01:28:13.835Z,70.98
2022-08-05T01:30:59.182Z,69.71
2022-08-05T01:33:35.538Z,68.62
2022-08-05T01:36:13.068Z,68.49
2022-08-05T01:38:48.575Z,68.55
2022-08-05T01:41:21.009Z,68.72
2022-08-05T01:43:49.970Z,70.07
2022-08-05T01:46:42.867Z,68.39
2022-08-05T01:49:23.000Z,68.08
2022-08-05T01:51:55.103Z,69.66
2022-08-05T01:54:25.702Z,68.12
2022-08-05T01:58:12.658Z,71.30
2022-08-05T01:59:47.288Z,68.52
2022-08-05T02:02:15.822Z,68.03
2022-08-05T02:04:46.129Z,67.55
2022-08-05T02:07:22.035Z,66.91
2022-08-05T02:09:50.362Z,66.81
2022-08-05T02:12:32.977Z,66.70
2022-08-05T02:15:00.343Z,67.24
2022-08-05T02:18:27.510Z,66.44
2022-08-05T02:20:27.869Z,67.31
2022-08-05T02:22:59.701Z,68.01
2022-08-05T02:25:33.372Z,69.07
2022-08-05T02:28:08.720Z,67.24
2022-08-05T02:30:51.764Z,67.32
2022-08-05T02:33:24.543Z,68.63
2022-08-05T02:36:09.443Z,68.39
2022-08-05T02:38:37.737Z,69.59
2022-08-05T02:41:14.495Z,70.31
2022-08-05T02:44:02.327Z,69.39
2022-08-05T02:46:33.977Z,68.67
2022-08-05T02:49:01.781Z,68.01
2022-08-05T02:52:04.474Z,69.11
2022-08-05T02:54:35.082Z,68.93
2022-08-05T02:57:10.281Z,68.35
2022-08-05T02:59:55.016Z,68.03
2022-08-05T03:02:27.442Z,68.15
2022-08-05T03:04:55.344Z,68.79
2022-08-05T03:07:27.033Z,70.39
2022-08-05T03:10:10.443Z,71.83
2022-08-05T03:12:51.704Z,69.66
2022-08-05T03:15:19.994Z,68.92
2022-08-05T03:17:46.610Z,69.90
2022-08-05T03:20:13.392Z,70.85
2022-08-05T03:22:44.353Z,68.16
2022-08-05T03:25:32.859Z,67.51
2022-08-05T03:28:02.259Z,67.52
2022-08-05T03:30:33.999Z,67.24
2022-08-05T03:33:02.854Z,68.37
2022-08-05T03:35:30.995Z,69.98
2022-08-05T03:38:01.321Z,68.16
2022-08-05T03:40:32.263Z,68.12
2022-08-05T03:43:16.033Z,69.05
2022-08-05T03:45:57.129Z,70.71
2022-08-05T03:48:27.482Z,68.84
2022-08-05T03:52:37.258Z,68.64
2022-08-05T03:55:34.306Z,70.57
2022-08-05T03:56:46.511Z,70.87
2022-08-05T03:59:47.273Z,72.08
2022-08-05T04:02:38.218Z,72.28
2022-08-05T04:05:09.919Z,71.94
2022-08-05T04:07:53.040Z,71.47
2022-08-05T04:10:27.794Z,68.75
2022-08-05T04:12:56.059Z,69.20
2022-08-05T04:15:26.508Z,71.34
2022-08-05T04:17:57.223Z,72.15
2022-08-05T04:20:24.244Z,70.74
2022-08-05T04:22:50.737Z,72.54
2022-08-05T04:25:17.434Z,72.35
2022-08-05T04:27:57.368Z,70.67
2022-08-05T04:30:26.588Z,70.23
2022-08-05T04:32:53.316Z,70.99
2022-08-05T04:35:20.176Z,72.45
2022-08-05T04:38:01.349Z,71.43
2022-08-05T04:40:36.275Z,72.97
2022-08-05T04:43:03.593Z,73.29
2022-08-05T04:45:48.322Z,72.37
2022-08-05T04:48:18.556Z,79.29
2022-08-05T04:51:01.844Z,77.35
2022-08-05T04:53:33.957Z,74.96
2022-08-05T04:56:33.099Z,75.52
2022-08-05T04:58:49.395Z,71.90
2022-08-05T05:01:15.941Z,73.26
2022-08-05T05:04:02.316Z,71.57
2022-08-05T05:06:40.409Z,71.69
2022-08-05T05:09:14.032Z,75.40
2022-08-05T05:11:54.065Z,73.84
2022-08-05T05:14:27.855Z,73.64
2022-08-05T05:16:59.950Z,71.13
2022-08-05T05:19:36.329Z,70.74
2022-08-05T05:22:24.472Z,70.04
2022-08-05T05:24:57.593Z,70.20
2022-08-05T05:27:41.720Z,70.34
2022-08-05T05:30:31.482Z,71.05
2022-08-05T05:33:09.197Z,70.70
2022-08-05T05:35:47.445Z,70.51
2022-08-05T05:38:14.598Z,70.30
2022-08-05T05:40:49.670Z,71.47
2022-08-05T05:43:54.442Z,75.53
2022-08-05T05:46:15.972Z,76.30
2022-08-05T05:48:45.877Z,74.33
2022-08-05T05:51:20.255Z,75.64
2022-08-05T05:53:57.226Z,76.10
2022-08-05T05:56:26.212Z,74.67
2022-08-05T05:58:58.478Z,72.00
2022-08-05T06:01:37.995Z,72.61
2022-08-05T06:04:11.655Z,71.49
2022-08-05T06:06:41.744Z,75.13
2022-08-05T06:09:09.272Z,70.71
2022-08-05T06:11:59.608Z,71.27
2022-08-05T06:14:29.200Z,71.10
2022-08-05T06:16:56.849Z,69.28
2022-08-05T06:19:35.088Z,69.35
2022-08-05T06:22:06.644Z,70.07
2022-08-05T06:24:34.926Z,68.93
2022-08-05T06:27:01.847Z,69.30
2022-08-05T06:29:46.609Z,69.87
2022-08-05T06:32:20.876Z,71.46
2022-08-05T06:34:53.449Z,71.46
2022-08-05T06:37:55.818Z,72.67
2022-08-05T06:40:07.606Z,71.43
2022-08-05T06:42:34.097Z,75.74
2022-08-05T06:45:00.555Z,71.69
2022-08-05T06:48:36.566Z,72.85
2022-08-05T06:50:19.024Z,71.15
2022-08-05T06:52:58.770Z,69.47
2022-08-05T06:55:36.514Z,70.05
2022-08-05T06:58:19.817Z,69.04
2022-08-05T07:00:50.399Z,70.74
2022-08-05T07:03:17.108Z,71.35
2022-08-05T07:05:44.285Z,71.42
2022-08-05T07:08:13.207Z,70.73
2022-08-05T07:10:52.909Z,70.61
2022-08-05T07:13:59.171Z,71.00
2022-08-05T07:18:00.013Z,71.78
2022-08-05T07:22:28.559Z,70.35
2022-08-05T07:25:22.717Z,69.12
2022-08-05T07:27:57.305Z,68.63
2022-08-05T07:30:33.430Z,67.88
2022-08-05T07:33:09.762Z,67.59
2022-08-05T07:36:02.607Z,70.08
2022-08-05T07:38:33.532Z,69.77
2022-08-05T07:42:09.176Z,68.49
2022-08-05T07:43:56.438Z,67.04
2022-08-05T07:46:27.449Z,68.64
2022-08-05T07:49:04.077Z,68.63
2022-08-05T07:51:37.252Z,70.38
2022-08-05T07:54:09.781Z,72.51
2022-08-05T07:57:02.739Z,74.97
2022-08-05T07:59:38.840Z,73.81
2022-08-05T08:02:15.809Z,76.45
2022-08-05T08:04:45.107Z,73.28
2022-08-05T08:07:12.570Z,76.92
2022-08-05T08:09:39.103Z,75.41
2022-08-05T08:12:19.943Z,75.24
2022-08-05T08:14:52.379Z,70.24
2022-08-05T08:17:18.867Z,71.78
2022-08-05T08:20:21.108Z,72.44
2022-08-05T08:22:37.786Z,69.28
2022-08-05T08:25:15.743Z,71.88
2022-08-05T08:27:47.673Z,70.02
2022-08-05T08:30:28.465Z,68.14
2022-08-05T08:33:02.614Z,69.75
2022-08-05T08:35:34.732Z,67.21
2022-08-05T08:38:07.348Z,69.36
2022-08-05T08:40:35.259Z,70.96
2022-08-05T08:45:16.248Z,66.38
2022-08-05T08:45:54.325Z,65.92
2022-08-05T08:48:36.116Z,66.51
2022-08-05T08:52:01.730Z,67.29
2022-08-05T08:53:55.420Z,64.42
2022-08-05T08:56:23.553Z,64.66
2022-08-05T08:58:53.953Z,64.20
2022-08-05T09:01:20.476Z,65.55
2022-08-05T09:03:55.803Z,64.96
2022-08-05T09:06:30.287Z,65.28
2022-08-05T09:09:02.067Z,64.26
2022-08-05T09:11:51.111Z,66.08
2022-08-05T09:14:58.822Z,64.25
2022-08-05T09:17:08.140Z,63.70
2022-08-05T09:20:01.897Z,66.26
2022-08-05T09:22:31.381Z,64.03
2022-08-05T09:25:13.734Z,66.19
2022-08-05T09:28:03.900Z,66.88
2022-08-05T09:30:34.431Z,64.88
2022-08-05T09:33:05.013Z,64.23
2022-08-05T09:35:31.860Z,65.32
2022-08-05T09:38:13.053Z,64.65
2022-08-05T09:40:51.748Z,63.64
2022-08-05T09:43:27.528Z,63.53
2022-08-05T09:46:27.637Z,63.97
2022-08-05T09:49:07.773Z,64.60
2022-08-05T09:51:42.290Z,63.76
2022-08-05T09:54:09.485Z,66.30
2022-08-05T09:56:38.237Z,65.18
2022-08-05T09:59:07.698Z,63.18
2022-08-05T10:01:41.843Z,62.39
2022-08-05T10:04:16.091Z,63.97
2022-08-05T10:07:19.925Z,65.32
2022-08-05T10:10:04.161Z,63.36
2022-08-05T10:12:50.463Z,65.66
2022-08-05T10:15:27.846Z,66.21
2022-08-05T10:18:12.393Z,65.04
2022-08-05T10:20:40.670Z,65.40
2022-08-05T10:23:21.748Z,66.22
2022-08-05T10:25:56.488Z,67.89
2022-08-05T10:28:29.595Z,64.71
2022-08-05T10:32:51.033Z,64.87
2022-08-05T10:33:45.024Z,64.08
2022-08-05T10:36:19.080Z,64.15
2022-08-05T10:39:24.036Z,63.12
2022-08-05T10:42:11.730Z,64.15
2022-08-05T10:44:39.308Z,63.27
2022-08-05T10:47:25.968Z,64.34
2022-08-05T10:50:32.087Z,62.62
2022-08-05T10:53:00.153Z,64.46
2022-08-05T10:55:27.254Z,69.57
2022-08-05T10:58:11.471Z,68.46
2022-08-05T11:00:42.263Z,64.90
2022-08-05T11:03:25.532Z,63.78
2022-08-05T11:06:04.298Z,62.33
2022-08-05T11:08:37.220Z,64.18
2022-08-05T11:11:44.267Z,65.54
2022-08-05T11:14:49.507Z,62.75
2022-08-05T11:18:00.386Z,65.60
2022-08-05T11:20:39.097Z,62.79
2022-08-05T11:24:04.719Z,63.18
2022-08-05T11:26:35.957Z,63.68
2022-08-05T11:29:12.924Z,63.37
2022-08-05T11:31:56.338Z,62.51
2022-08-05T11:34:37.819Z,63.58
2022-08-05T11:37:06.304Z,62.32
2022-08-05T11:40:00.203Z,61.55
2022-08-05T11:42:37.875Z,63.33
2022-08-05T11:45:14.189Z,61.75
2022-08-05T11:47:50.578Z,65.29
2022-08-05T11:50:21.586Z,62.47
2022-08-05T11:52:48.996Z,63.84
2022-08-05T11:55:17.636Z,62.99
2022-08-05T11:58:10.649Z,62.34
2022-08-05T12:00:38.115Z,62.30
2022-08-05T12:03:43.639Z,61.66
2022-08-05T12:06:25.862Z,60.96
2022-08-05T12:08:54.413Z,61.33
2022-08-05T12:11:40.374Z,62.00
2022-08-05T12:14:10.248Z,62.22
2022-08-05T12:16:45.148Z,63.16
2022-08-05T12:20:26.325Z,61.30
2022-08-05T12:22:01.463Z,64.16
2022-08-05T12:24:27.956Z,61.46
2022-08-05T12:26:54.861Z,60.29
2022-08-05T12:29:23.475Z,60.23
2022-08-05T12:31:55.500Z,62.59
2022-08-05T12:34:28.545Z,59.71
2022-08-05T12:36:59.034Z,57.72
2022-08-05T12:39:34.300Z,56.96
2022-08-05T12:42:09.494Z,55.99
2022-08-05T12:44:41.661Z,56.04
2022-08-05T12:47:12.423Z,57.07
2022-08-05T12:50:03.228Z,55.58
2022-08-05T12:52:41.699Z,55.44
2022-08-05T12:55:32.508Z,55.81
2022-08-05T12:58:51.272Z,54.96
2022-08-05T13:02:00.555Z,54.80
2022-08-05T13:03:41.447Z,55.27
2022-08-05T13:06:19.770Z,54.87
2022-08-05T13:08:51.703Z,55.12
2022-08-05T13:11:57.945Z,54.95
2022-08-05T13:14:36.115Z,56.33
2022-08-05T13:17:16.191Z,57.08
2022-08-05T13:20:06.885Z,56.59
2022-08-05T13:22:43.479Z,57.10
2022-08-05T13:25:19.171Z,58.14
2022-08-05T13:27:51.653Z,58.58
2022-08-05T13:30:35.185Z,59.27
2022-08-05T13:33:05.486Z,59.49
2022-08-05T13:35:42.594Z,59.13
2022-08-05T13:38:28.436Z,58.94
2022-08-05T13:40:58.492Z,59.48
2022-08-05T13:43:44.094Z,58.75
2022-08-05T13:46:12.200Z,61.08
2022-08-05T13:48:57.874Z,59.72
2022-08-05T13:51:40.352Z,58.74
2022-08-05T13:54:11.805Z,60.32
2022-08-05T13:56:39.930Z,58.63
2022-08-05T13:59:20.326Z,58.74
2022-08-05T14:01:56.428Z,59.09
2022-08-05T14:04:41.983Z,58.35
2022-08-05T14:07:26.439Z,58.16
2022-08-05T14:09:56.076Z,61.92
2022-08-05T14:12:32.793Z,61.14
2022-08-05T14:14:59.671Z,59.24
2022-08-05T14:17:26.717Z,58.55
2022-08-05T14:19:59.646Z,57.52
2022-08-05T14:22:30.460Z,58.42
2022-08-05T14:25:01.508Z,57.27
2022-08-05T14:27:28.382Z,58.35
2022-08-05T14:29:56.415Z,58.02
2022-08-05T14:32:26.787Z,56.86
2022-08-05T14:34:54.726Z,56.16
2022-08-05T14:37:45.444Z,55.44
2022-08-05T14:40:13.980Z,54.95
2022-08-05T14:42:43.091Z,54.51
2022-08-05T14:45:10.190Z,55.34
2022-08-05T14:48:03.416Z,57.40
2022-08-05T14:50:23.355Z,55.61
2022-08-05T14:52:58.313Z,54.76
2022-08-05T14:55:39.568Z,54.82
2022-08-05T14:58:11.959Z,53.70
2022-08-05T15:00:58.430Z,52.62
2022-08-05T15:03:33.223Z,53.51
2022-08-05T15:06:07.877Z,54.40
2022-08-05T15:09:01.123Z,54.52
2022-08-05T15:11:51.628Z,56.54
2022-08-05T15:14:33.243Z,55.83
2022-08-05T15:17:01.531Z,55.99
2022-08-05T15:19:30.430Z,54.04
2022-08-05T15:22:00.101Z,57.47
2022-08-05T15:24:27.933Z,55.02
2022-08-05T15:26:55.889Z,54.43
2022-08-05T15:29:23.543Z,53.70
2022-08-05T15:31:56.373Z,52.57
2022-08-05T15:34:32.942Z,51.75
2022-08-05T15:37:06.311Z,52.20
2022-08-05T15:41:00.102Z,51.46
2022-08-05T15:42:28.798Z,52.50
2022-08-05T15:45:14.767Z,50.91
2022-08-05T15:47:42.852Z,51.74
2022-08-05T15:50:15.091Z,51.48
2022-08-05T15:52:53.264Z,51.04
2022-08-05T15:55:24.574Z,52.90
2022-08-05T15:57:51.377Z,53.68
2022-08-05T16:00:26.269Z,53.35
2022-08-05T16:03:05.023Z,53.02
2022-08-05T16:05:31.979Z,54.42
2022-08-05T16:07:58.518Z,54.27
2022-08-05T16:10:26.975Z,56.33
2022-08-05T16:12:56.024Z,52.79
2022-08-05T16:15:23.026Z,52.35
2022-08-05T16:17:57.844Z,54.51
2022-08-05T16:20:24.855Z,53.10
2022-08-05T16:22:51.308Z,52.03
2022-08-05T16:25:17.874Z,51.65
2022-08-05T16:28:01.085Z,52.10
2022-08-05T16:30:31.867Z,51.26
2022-08-05T16:32:59.408Z,51.20
2022-08-05T16:35:28.691Z,50.90
2022-08-05T16:38:16.316Z,51.13
2022-08-05T16:40:51.692Z,50.74
2022-08-05T16:43:23.746Z,51.71
2022-08-05T16:46:03.703Z,52.73
2022-08-05T16:48:39.042Z,51.99
2022-08-05T16:51:09.362Z,51.79
2022-08-05T16:54:05.771Z,51.61
2022-08-05T16:56:26.171Z,52.98
2022-08-05T16:59:07.894Z,52.36
2022-08-05T17:01:54.391Z,53.07
2022-08-05T17:04:23.915Z,54.32
2022-08-05T17:06:55.218Z,53.29
2022-08-05T17:09:23.060Z,52.29
2022-08-05T17:11:52.360Z,52.22
2022-08-05T17:14:34.036Z,54.92
2022-08-05T17:17:04.197Z,56.17
2022-08-05T17:19:31.208Z,53.71
2022-08-05T17:21:58.368Z,52.93
2022-08-05T17:24:33.928Z,54.13
2022-08-05T17:27:05.592Z,52.72
2022-08-05T17:29:39.766Z,53.04
2022-08-05T17:32:17.219Z,52.07
2022-08-05T17:34:53.137Z,51.90
2022-08-05T17:37:39.698Z,52.00
2022-08-05T17:40:10.867Z,54.03
2022-08-05T17:42:46.389Z,54.68
2022-08-05T17:45:20.298Z,53.82
2022-08-05T17:47:51.543Z,52.89
2022-08-05T17:50:27.668Z,53.37
2022-08-05T17:52:58.723Z,52.37
2022-08-05T17:55:27.223Z,52.57
2022-08-05T17:58:01.947Z,52.84
2022-08-05T18:00:29.444Z,52.68
2022-08-05T18:02:56.319Z,54.60
2022-08-05T18:05:23.666Z,54.08
2022-08-05T18:07:54.461Z,52.62
2022-08-05T18:10:23.327Z,54.29
2022-08-05T18:12:49.939Z,54.31
2022-08-05T18:15:16.671Z,53.72
2022-08-05T18:18:00.903Z,53.38
2022-08-05T18:20:31.852Z,53.88
2022-08-05T18:23:09.320Z,52.54
2022-08-05T18:25:39.508Z,54.86
2022-08-05T18:28:11.364Z,53.25
2022-08-05T18:30:39.180Z,53.20
2022-08-05T18:33:07.360Z,54.10
2022-08-05T18:36:00.527Z,52.77
2022-08-05T18:38:25.998Z,53.08
2022-08-05T18:41:57.092Z,54.15
2022-08-05T18:43:42.768Z,56.03
2022-08-05T18:46:14.837Z,53.99
2022-08-05T18:48:41.610Z,53.75
2022-08-05T18:52:03.887Z,53.72
2022-08-05T18:54:14.744Z,55.47
2022-08-05T18:56:41.869Z,54.26
2022-08-05T18:59:43.308Z,56.51
2022-08-05T19:02:04.613Z,54.39
2022-08-05T19:04:38.107Z,54.38
2022-08-05T19:07:24.645Z,54.65
2022-08-05T19:09:56.599Z,55.82
2022-08-05T19:12:23.389Z,56.55
2022-08-05T19:15:00.312Z,56.12
2022-08-05T19:17:59.371Z,53.02
2022-08-05T19:20:15.610Z,49.53
2022-08-05T19:22:44.222Z,46.92
2022-08-05T19:25:10.817Z,45.64
2022-08-05T19:27:48.761Z,44.47
2022-08-05T19:30:20.489Z,43.26
2022-08-05T19:32:47.260Z,42.89
2022-08-05T19:35:14.373Z,42.46
2022-08-05T19:38:04.660Z,42.12
2022-08-05T19:40:28.591Z,41.17
2022-08-05T19:43:04.658Z,41.07
2022-08-05T19:45:36.367Z,41.93
2022-08-05T19:48:03.444Z,41.90
2022-08-05T19:50:31.850Z,41.59
2022-08-05T19:52:58.534Z,42.62
2022-08-05T19:56:15.228Z,42.64
2022-08-05T19:58:29.164Z,42.10
2022-08-05T20:00:56.384Z,42.82
2022-08-05T20:03:26.140Z,43.24
2022-08-05T20:05:56.448Z,43.03
2022-08-05T20:08:24.609Z,42.45
2022-08-05T20:10:52.264Z,42.15
2022-08-05T20:13:30.042Z,42.46
2022-08-05T20:16:05.669Z,42.33
2022-08-05T20:18:33.253Z,42.22
2022-08-05T20:21:04.592Z,41.54
2022-08-05T20:23:40.450Z,41.62
2022-08-05T20:26:20.398Z,42.03
2022-08-05T20:28:50.369Z,41.74
2022-08-05T20:31:21.676Z,41.06
2022-08-05T20:33:50.038Z,42.47
2022-08-05T20:36:18.094Z,42.07
2022-08-05T20:38:54.242Z,41.73
2022-08-05T20:41:27.524Z,42.30
2022-08-05T20:44:17.804Z,41.82
2022-08-05T20:46:57.978Z,42.22
2022-08-05T20:49:25.980Z,42.04
2022-08-05T20:51:54.017Z,42.15
2022-08-05T20:54:20.990Z,42.35
2022-08-05T20:56:47.467Z,42.39
2022-08-05T20:59:26.665Z,42.42
2022-08-05T21:01:57.247Z,43.09
2022-08-05T21:04:26.906Z,43.70
2022-08-05T21:06:54.153Z,43.01
2022-08-05T21:09:21.758Z,43.03
2022-08-05T21:12:09.147Z,42.74
2022-08-05T21:14:35.521Z,42.76
2022-08-05T21:17:05.963Z,44.32
2022-08-05T21:19:47.422Z,43.70
2022-08-05T21:22:18.333Z,43.01
2022-08-05T21:24:45.754Z,44.17
2022-08-05T21:27:16.008Z,43.66
2022-08-05T21:29:43.252Z,43.72
2022-08-05T21:32:19.880Z,43.47
2022-08-05T21:35:08.496Z,43.39
2022-08-05T21:37:33.405Z,44.13
2022-08-05T21:40:05.810Z,43.88
2022-08-05T21:42:43.700Z,44.25
2022-08-05T21:45:11.654Z,46.37
2022-08-05T21:47:55.717Z,47.56
2022-08-05T21:50:24.080Z,46.89
2022-08-05T21:52:50.564Z,48.10
2022-08-05T21:55:42.683Z,47.46
2022-08-05T21:58:05.439Z,46.45
2022-08-05T22:00:32.185Z,46.16
2022-08-05T22:02:59.708Z,46.72
2022-08-05T22:05:27.419Z,48.20
2022-08-05T22:07:58.667Z,46.95
2022-08-05T22:10:26.888Z,47.72
2022-08-05T22:12:57.515Z,46.66
2022-08-05T22:16:02.492Z,46.42
2022-08-05T22:18:12.667Z,47.15
2022-08-05T22:20:41.182Z,46.65
2022-08-05T22:24:02.299Z,47.04
2022-08-05T22:26:31.483Z,47.23
2022-08-05T22:29:00.285Z,47.50
2022-08-05T22:31:30.254Z,47.39
2022-08-05T22:34:01.517Z,48.63
2022-08-05T22:36:29.161Z,47.60
2022-08-05T22:38:56.313Z,48.38
2022-08-05T22:42:04.932Z,48.20
2022-08-05T22:44:12.071Z,47.56
2022-08-05T22:46:40.695Z,48.61
2022-08-05T22:49:23.058Z,48.54
2022-08-05T22:52:05.805Z,48.44
2022-08-05T22:54:35.264Z,48.14
2022-08-05T22:57:02.850Z,48.29
2022-08-05T22:59:48.559Z,48.91
2022-08-05T23:02:29.476Z,49.88
2022-08-05T23:04:56.951Z,48.76
2022-08-05T23:07:23.423Z,50.28
2022-08-05T23:09:57.166Z,52.19
2022-08-05T23:12:32.431Z,51.03
2022-08-05T23:15:03.948Z,50.07
2022-08-05T23:17:37.433Z,50.95
2022-08-05T23:20:24.402Z,50.51
2022-08-05T23:22:54.166Z,50.98
2022-08-05T23:25:52.911Z,50.72
2022-08-05T23:28:10.795Z,50.97
2022-08-05T23:30:40.153Z,51.66
2022-08-05T23:33:16.477Z,51.63
2022-08-05T23:35:50.045Z,52.15
2022-08-05T23:38:16.974Z,52.13
2022-08-05T23:40:50.058Z,53.62
2022-08-05T23:43:25.536Z,53.16
2022-08-05T23:46:21.149Z,51.67
2022-08-05T23:49:00.412Z,51.28
2022-08-05T23:51:53.697Z,52.55
2022-08-05T23:54:31.728Z,52.79
2022-08-05T23:57:04.634Z,52.56
